createdAt,value
2022-07-26T00:05:22.000Z,19.90
2022-07-26T00:15:22.000Z,16.30
2022-07-26T00:25:21.000Z,18.00
2022-07-26T00:35:21.000Z,17.90
2022-07-26T00:45:21.000Z,16.60
2022-07-26T00:55:21.000Z,18.40
2022-07-26T01:05:21.000Z,21.70
2022-07-26T01:25:20.000Z,22.20
2022-07-26T01:35:20.000Z,22.50
2022-07-26T01:45:19.000Z,21.80
2022-07-26T01:55:19.000Z,20.70
2022-07-26T02:05:19.000Z,19.90
2022-07-26T02:15:18.000Z,21.00
2022-07-26T02:25:18.000Z,20.30
2022-07-26T02:35:18.000Z,22.40
2022-07-26T02:55:17.000Z,17.00
2022-07-26T03:05:17.000Z,16.60
2022-07-26T03:15:16.000Z,15.80
2022-07-26T03:25:16.000Z,14.10
2022-07-26T03:35:16.000Z,12.90
2022-07-26T03:45:16.000Z,11.00
2022-07-26T03:55:15.000Z,11.70
2022-07-26T04:05:15.000Z,10.40
2022-07-26T04:25:15.000Z,10.60
2022-07-26T04:35:14.000Z,8.80
2022-07-26T04:45:14.000Z,9.50
2022-07-26T04:55:14.000Z,9.30
2022-07-26T05:05:14.000Z,8.90
2022-07-26T05:15:13.000Z,7.40
2022-07-26T05:25:13.000Z,5.70
2022-07-26T05:35:13.000Z,5.20
2022-07-26T05:55:12.000Z,6.10
2022-07-26T06:05:12.000Z,4.70
2022-07-26T06:15:12.000Z,5.10
2022-07-26T06:25:11.000Z,5.10
2022-07-26T06:35:11.000Z,4.30
2022-07-26T06:45:11.000Z,4.80
2022-07-26T06:55:10.000Z,4.50
2022-07-26T07:05:10.000Z,4.40
2022-07-26T07:05:10.000Z,4.40
2022-07-26T07:25:09.000Z,4.70
2022-07-26T07:35:09.000Z,3.80
2022-07-26T07:45:09.000Z,5.30
2022-07-26T07:45:09.000Z,5.30
2022-07-26T07:45:09.000Z,5.30
2022-07-26T07:55:08.000Z,3.40
2022-07-26T08:05:08.000Z,3.70
2022-07-26T08:15:08.000Z,3.70
2022-07-26T08:25:07.000Z,3.70
2022-07-26T08:35:07.000Z,3.60
2022-07-26T08:55:06.000Z,4.20
2022-07-26T09:05:05.000Z,3.30
2022-07-26T09:15:05.000Z,3.60
2022-07-26T09:25:04.000Z,3.30
2022-07-26T09:25:04.000Z,3.30
2022-07-26T09:35:03.000Z,3.00
2022-07-26T09:45:03.000Z,3.20
2022-07-26T09:55:02.000Z,3.40
2022-07-26T10:05:02.000Z,3.00
2022-07-26T10:25:00.000Z,2.90
2022-07-26T10:35:00.000Z,2.90
2022-07-26T10:44:59.000Z,3.40
2022-07-26T10:54:58.000Z,3.30
2022-07-26T11:04:58.000Z,3.30
2022-07-26T11:14:57.000Z,3.70
2022-07-26T11:24:57.000Z,3.00
2022-07-26T11:34:56.000Z,3.40
2022-07-26T11:54:55.000Z,4.40
2022-07-26T12:04:54.000Z,4.00
2022-07-26T12:14:53.000Z,3.60
2022-07-26T12:24:52.000Z,4.20
2022-07-26T12:34:52.000Z,4.00
2022-07-26T12:44:51.000Z,3.90
2022-07-26T12:54:50.000Z,3.80
2022-07-26T13:04:49.000Z,4.70
2022-07-26T13:24:48.000Z,4.30
2022-07-26T13:34:47.000Z,4.80
2022-07-26T13:44:47.000Z,4.70
2022-07-26T13:54:46.000Z,5.60
2022-07-26T14:04:46.000Z,4.60
2022-07-26T14:14:45.000Z,4.30
2022-07-26T14:24:44.000Z,3.30
2022-07-26T14:34:44.000Z,3.70
2022-07-26T14:54:43.000Z,4.00
2022-07-26T15:04:42.000Z,3.60
2022-07-26T15:14:42.000Z,3.40
2022-07-26T15:24:41.000Z,3.40
2022-07-26T15:34:40.000Z,3.30
2022-07-26T15:44:40.000Z,3.60
2022-07-26T15:54:39.000Z,3.30
2022-07-26T16:04:39.000Z,3.20
2022-07-26T16:24:37.000Z,3.50
2022-07-26T16:34:37.000Z,3.40
2022-07-26T16:44:36.000Z,3.50
2022-07-26T16:54:36.000Z,4.00
2022-07-26T17:04:35.000Z,3.40
2022-07-26T17:14:34.000Z,2.70
2022-07-26T17:24:34.000Z,3.20
2022-07-26T17:34:33.000Z,2.80
2022-07-26T17:54:32.000Z,2.20
2022-07-26T18:04:32.000Z,2.30
2022-07-26T18:14:32.000Z,2.30
2022-07-26T18:24:31.000Z,2.40
2022-07-26T18:34:31.000Z,2.50
2022-07-26T18:44:30.000Z,2.00
2022-07-26T18:54:30.000Z,2.80
2022-07-26T19:04:30.000Z,2.70
2022-07-26T19:24:29.000Z,2.70
2022-07-26T19:34:29.000Z,2.50
2022-07-26T19:44:28.000Z,2.70
2022-07-26T19:54:28.000Z,3.20
2022-07-26T20:04:28.000Z,2.90
2022-07-26T20:14:28.000Z,3.00
2022-07-26T20:24:28.000Z,2.60
2022-07-26T20:34:28.000Z,2.90
2022-07-26T20:54:27.000Z,2.80
2022-07-26T21:04:27.000Z,2.70
2022-07-26T21:14:27.000Z,2.90
2022-07-26T21:24:26.000Z,2.80
2022-07-26T21:34:26.000Z,3.30
2022-07-26T21:44:26.000Z,3.50
2022-07-26T21:54:26.000Z,3.10
2022-07-26T22:04:26.000Z,3.20
2022-07-26T22:24:26.000Z,2.50
2022-07-26T22:34:25.000Z,2.60
2022-07-26T22:44:25.000Z,3.20
2022-07-26T22:54:25.000Z,2.90
2022-07-26T23:04:25.000Z,2.90
2022-07-26T23:14:25.000Z,2.90
2022-07-26T23:24:25.000Z,2.90
2022-07-26T23:34:25.000Z,3.40
2022-07-26T23:54:24.000Z,3.50
